Time;durP1;ratioP1;P1;durP2;ratioP2;P2;SDS_P1;SDS_P2;PMS_P1;PMS_P2;Temp;Humidity;BMP_temperature;BMP_pressure;BME280_temperature;BME280_humidity;BME280_pressure;Samples;Min_cycle;Max_cycle;Signal;HPM_P1;HPM_P2
2021/12/01 02:21:43;;;;;;;0.60;0.60;;;;;;;;;;6248143;22;20219;-90
2021/12/01 02:24:49;;;;;;;0.30;0.30;;;;;;;;;;6263227;23;20174;-89
2021/12/01 02:27:54;;;;;;;0.30;0.30;;;;;;;;;;6262410;23;20234;-89
2021/12/01 02:31:00;;;;;;;0.30;0.30;;;;;;;;;;6261040;23;20237;-88
2021/12/01 02:34:07;;;;;;;0.30;0.30;;;;;;;;;;6261596;23;20526;-89
2021/12/01 02:37:13;;;;;;;0.40;0.40;;;;;;;;;;6242572;22;20153;-86
2021/12/01 02:40:18;;;;;;;0.40;0.40;;;;;;;;;;6261376;23;20167;-89
2021/12/01 02:43:24;;;;;;;3.73;1.70;;;;;;;;;;6262251;22;20166;-90
2021/12/01 02:46:29;;;;;;;0.30;0.30;;;;;;;;;;6261339;23;20170;-90
2021/12/01 02:49:35;;;;;;;0.50;0.50;;;;;;;;;;6261732;23;20178;-88
2021/12/01 02:52:42;;;;;;;0.50;0.50;;;;;;;;;;6260948;23;20258;-90
2021/12/01 02:55:51;;;;;;;0.30;0.30;;;;;;;;;;6260436;23;20259;-87
2021/12/01 02:58:58;;;;;;;0.30;0.30;;;;;;;;;;6262014;22;20166;-88
2021/12/01 03:02:07;;;;;;;0.30;0.30;;;;;;;;;;6262525;22;20187;-87
2021/12/01 03:05:13;;;;;;;1.27;0.87;;;;;;;;;;6261732;23;20174;-88
2021/12/01 03:08:49;;;;;;;0.30;0.30;;;;;;;;;;6261402;23;20227;-87
2021/12/01 03:11:56;;;;;;;0.57;0.57;;;;;;;;;;6262292;23;20234;-89
2021/12/01 03:15:01;;;;;;;0.57;0.57;;;;;;;;;;6260468;22;20167;-88
2021/12/01 03:18:06;;;;;;;0.87;0.87;;;;;;;;;;6261665;23;20174;-88
2021/12/01 03:21:12;;;;;;;0.30;0.30;;;;;;;;;;6245903;23;20694;-88
2021/12/01 03:24:18;;;;;;;0.30;0.30;;;;;;;;;;6212621;23;20215;-88
2021/12/01 03:27:25;;;;;;;0.30;0.30;;;;;;;;;;6212516;23;20179;-87
2021/12/01 03:30:34;;;;;;;0.30;0.30;;;;;;;;;;6212999;23;20159;-88
2021/12/01 03:33:40;;;;;;;0.27;0.27;;;;;;;;;;6213919;23;20171;-89
2021/12/01 03:36:45;;;;;;;0.30;0.30;;;;;;;;;;6213061;23;20171;-91
2021/12/01 03:39:51;;;;;;;0.40;0.40;;;;;;;;;;6213251;23;20154;-88
2021/12/01 03:42:58;;;;;;;0.30;0.30;;;;;;;;;;6213389;23;20155;-89
2021/12/01 03:46:04;;;;;;;0.30;0.30;;;;;;;;;;6212396;23;20270;-88
2021/12/01 03:49:11;;;;;;;0.30;0.30;;;;;;;;;;6212623;23;20228;-87
2021/12/01 03:52:17;;;;;;;0.40;0.40;;;;;;;;;;6212973;23;20195;-89
2021/12/01 03:55:22;;;;;;;0.63;0.63;;;;;;;;;;6213588;23;20172;-88
2021/12/01 03:58:29;;;;;;;2.03;1.03;;;;;;;;;;6214023;23;20250;-89
2021/12/01 04:01:38;;;;;;;0.30;0.30;;;;;;;;;;6211447;23;20171;-89
2021/12/01 04:04:43;;;;;;;0.50;0.50;;;;;;;;;;6209007;23;20219;-88
2021/12/01 04:07:48;;;;;;;0.67;0.67;;;;;;;;;;6211235;23;20171;-87
2021/12/01 04:10:53;;;;;;;0.57;0.57;;;;;;;;;;6229720;23;20179;-86
2021/12/01 04:14:00;;;;;;;0.63;0.63;;;;;;;;;;6210818;23;20263;-88
2021/12/01 04:17:06;;;;;;;0.40;0.40;;;;;;;;;;6212607;23;20630;-89
2021/12/01 04:20:13;;;;;;;0.63;0.53;;;;;;;;;;6214028;23;20167;-88
2021/12/01 04:23:18;;;;;;;0.50;0.50;;;;;;;;;;6257536;23;20169;-86
2021/12/01 04:26:26;;;;;;;0.40;0.40;;;;;;;;;;6256072;23;20260;-88
2021/12/01 04:29:33;;;;;;;10.30;2.10;;;;;;;;;;6239330;23;20170;-89
2021/12/01 04:32:38;;;;;;;1.03;0.63;;;;;;;;;;6259108;23;20250;-88
2021/12/01 04:35:44;;;;;;;0.60;0.60;;;;;;;;;;6240089;23;20174;-87
2021/12/01 04:38:49;;;;;;;0.37;0.37;;;;;;;;;;6257853;23;20170;-89
2021/12/01 04:41:56;;;;;;;0.30;0.30;;;;;;;;;;6257837;23;20190;-88
2021/12/01 04:45:03;;;;;;;1.33;1.23;;;;;;;;;;6256985;23;20238;-90
2021/12/01 04:48:11;;;;;;;0.50;0.50;;;;;;;;;;6257743;23;20182;-88
2021/12/01 04:51:17;;;;;;;0.97;0.97;;;;;;;;;;6257733;23;20278;-87
2021/12/01 04:54:22;;;;;;;1.07;1.03;;;;;;;;;;6262429;23;20305;-86
2021/12/01 04:57:28;;;;;;;2.20;1.07;;;;;;;;;;6258074;23;20190;-87
2021/12/01 05:00:37;;;;;;;0.70;0.70;;;;;;;;;;6256248;23;20171;-86
2021/12/01 05:03:42;;;;;;;0.30;0.30;;;;;;;;;;6257504;23;20154;-88
2021/12/01 05:06:48;;;;;;;0.60;0.60;;;;;;;;;;6258848;23;20170;-87
2021/12/01 05:09:54;;;;;;;0.40;0.40;;;;;;;;;;6242554;23;20185;-89
2021/12/01 05:12:59;;;;;;;0.40;0.40;;;;;;;;;;6259477;23;20711;-87
2021/12/01 05:16:06;;;;;;;6.33;1.50;;;;;;;;;;6257900;23;20194;-91
2021/12/01 05:19:11;;;;;;;2.20;1.37;;;;;;;;;;6259134;23;20249;-89
2021/12/01 05:22:16;;;;;;;0.30;0.30;;;;;;;;;;6260675;23;20189;-88
2021/12/01 05:25:22;;;;;;;0.30;0.30;;;;;;;;;;6256207;23;20175;-88
2021/12/01 05:28:28;;;;;;;2.63;0.77;;;;;;;;;;6257215;23;20177;-87
2021/12/01 05:31:34;;;;;;;0.93;0.90;;;;;;;;;;6257999;23;20174;-89
2021/12/01 05:34:40;;;;;;;1.23;1.13;;;;;;;;;;6256923;23;20171;-88
2021/12/01 05:37:45;;;;;;;0.40;0.40;;;;;;;;;;6260903;22;20163;-89
2021/12/01 05:40:50;;;;;;;0.50;0.50;;;;;;;;;;6261029;23;20614;-88
2021/12/01 05:43:56;;;;;;;0.60;0.60;;;;;;;;;;6260761;23;20170;-88
2021/12/01 05:47:03;;;;;;;0.63;0.63;;;;;;;;;;6262484;23;20174;-88
2021/12/01 05:50:13;;;;;;;1.20;1.03;;;;;;;;;;6261223;23;20178;-91
2021/12/01 05:53:18;;;;;;;1.13;0.87;;;;;;;;;;6261458;23;20226;-91
2021/12/01 05:56:23;;;;;;;0.73;0.73;;;;;;;;;;6261092;23;20253;-89
2021/12/01 05:59:28;;;;;;;0.30;0.30;;;;;;;;;;6262015;23;20210;-88
2021/12/01 06:02:35;;;;;;;0.30;0.30;;;;;;;;;;6260680;23;20166;-87
2021/12/01 06:05:41;;;;;;;0.30;0.30;;;;;;;;;;6262119;23;20185;-87
2021/12/01 06:08:47;;;;;;;0.63;0.63;;;;;;;;;;6262276;23;20189;-90
2021/12/01 06:11:53;;;;;;;1.50;1.07;;;;;;;;;;6260655;23;20174;-89
2021/12/01 06:14:58;;;;;;;2.33;1.13;;;;;;;;;;6261016;23;20178;-86
2021/12/01 06:18:09;;;;;;;1.80;0.60;;;;;;;;;;6262575;23;20174;-89
2021/12/01 06:21:14;;;;;;;0.40;0.40;;;;;;;;;;6262311;23;20520;-89
2021/12/01 06:24:19;;;;;;;0.30;0.30;;;;;;;;;;6261062;23;20247;-90
2021/12/01 06:27:27;;;;;;;0.37;0.37;;;;;;;;;;6262066;23;20166;-88
2021/12/01 06:30:33;;;;;;;0.77;0.77;;;;;;;;;;6245728;23;20158;-90
2021/12/01 06:33:40;;;;;;;0.40;0.40;;;;;;;;;;6262549;22;20646;-88
2021/12/01 06:36:45;;;;;;;2.83;1.13;;;;;;;;;;6263183;22;20216;-89
2021/12/01 06:39:51;;;;;;;0.60;0.60;;;;;;;;;;6261265;23;20638;-89
2021/12/01 06:42:56;;;;;;;0.30;0.30;;;;;;;;;;6261608;22;20167;-89
2021/12/01 06:46:02;;;;;;;0.40;0.40;;;;;;;;;;6261990;23;20174;-88
2021/12/01 06:49:10;;;;;;;0.73;0.73;;;;;;;;;;6261629;23;20170;-90
2021/12/01 06:52:15;;;;;;;0.97;0.93;;;;;;;;;;6261205;23;20202;-88
2021/12/01 06:55:23;;;;;;;0.70;0.70;;;;;;;;;;6242013;23;20182;-88
2021/12/01 06:58:28;;;;;;;7.47;2.30;;;;;;;;;;6261474;23;20178;-88
2021/12/01 07:01:34;;;;;;;0.30;0.30;;;;;;;;;;6245178;23;20159;-87
2021/12/01 07:04:41;;;;;;;0.30;0.30;;;;;;;;;;6261660;23;20162;-88
2021/12/01 07:07:47;;;;;;;0.30;0.30;;;;;;;;;;6262835;23;20212;-89
2021/12/01 07:10:52;;;;;;;0.63;0.63;;;;;;;;;;6263175;23;20174;-90
2021/12/01 07:13:57;;;;;;;1.73;1.20;;;;;;;;;;6262687;22;20273;-91
2021/12/01 07:17:02;;;;;;;1.47;0.60;;;;;;;;;;6262241;23;20170;-91
2021/12/01 07:20:12;;;;;;;0.63;0.60;;;;;;;;;;6263301;23;20162;-88
2021/12/01 07:23:17;;;;;;;0.30;0.30;;;;;;;;;;6245420;23;20170;-89
2021/12/01 07:26:24;;;;;;;1.23;1.13;;;;;;;;;;6246192;22;20225;-88
2021/12/01 07:29:31;;;;;;;1.13;1.03;;;;;;;;;;6264574;23;20194;-90
2021/12/01 07:32:40;;;;;;;1.33;1.23;;;;;;;;;;6264757;22;20189;-89
2021/12/01 07:35:48;;;;;;;2.00;1.10;;;;;;;;;;6263096;23;20190;-88
2021/12/01 07:38:59;;;;;;;0.87;0.87;;;;;;;;;;6246555;23;20175;-87
2021/12/01 07:42:07;;;;;;;1.00;1.00;;;;;;;;;;6263600;23;20186;-88
2021/12/01 07:45:13;;;;;;;0.40;0.40;;;;;;;;;;6262265;23;20223;-87
2021/12/01 07:48:19;;;;;;;1.37;1.27;;;;;;;;;;6259722;23;20234;-93
2021/12/01 07:51:26;;;;;;;4.50;1.53;;;;;;;;;;6260106;23;20166;-89
2021/12/01 07:54:33;;;;;;;0.73;0.73;;;;;;;;;;6262224;23;20170;-89
2021/12/01 07:57:41;;;;;;;1.07;0.87;;;;;;;;;;6263480;23;20173;-88
2021/12/01 08:00:47;;;;;;;2.53;1.73;;;;;;;;;;6263941;23;20213;-90
2021/12/01 08:04:01;;;;;;;0.83;0.80;;;;;;;;;;6264053;23;20195;-89
2021/12/01 08:07:15;;;;;;;0.30;0.30;;;;;;;;;;6260800;23;20252;-90
2021/12/01 08:10:23;;;;;;;0.63;0.63;;;;;;;;;;6262629;22;20218;-88
2021/12/01 08:13:29;;;;;;;0.73;0.73;;;;;;;;;;6264289;23;20190;-88
2021/12/01 08:20:08;;;;;;;0.40;0.40;;;;;;;;;;6244763;23;20247;-89
2021/12/01 08:23:14;;;;;;;1.50;1.40;;;;;;;;;;6243241;23;20174;-89
2021/12/01 08:26:29;;;;;;;0.40;0.40;;;;;;;;;;6261607;23;20500;-88
2021/12/01 08:29:35;;;;;;;0.67;0.67;;;;;;;;;;6259696;22;20171;-89
2021/12/01 08:32:45;;;;;;;0.90;0.90;;;;;;;;;;6258603;23;20202;-88
2021/12/01 08:35:50;;;;;;;6.63;1.63;;;;;;;;;;6260237;23;20190;-89
2021/12/01 08:38:58;;;;;;;1.07;0.90;;;;;;;;;;6260634;23;20210;-89
2021/12/01 08:42:03;;;;;;;1.00;0.60;;;;;;;;;;6245281;23;20249;-88
2021/12/01 08:45:10;;;;;;;0.30;0.30;;;;;;;;;;6261595;22;20266;-87
2021/12/01 08:48:16;;;;;;;4.13;0.73;;;;;;;;;;6244128;23;20167;-90
2021/12/01 08:51:21;;;;;;;0.53;0.53;;;;;;;;;;6262895;23;20205;-89
2021/12/01 08:54:29;;;;;;;1.07;1.00;;;;;;;;;;6264057;23;20190;-89
2021/12/01 08:57:34;;;;;;;2.37;1.27;;;;;;;;;;6263276;23;20528;-88
2021/12/01 09:00:44;;;;;;;0.40;0.40;;;;;;;;;;6244366;23;20167;-90
2021/12/01 09:03:50;;;;;;;1.13;0.93;;;;;;;;;;6262660;22;20242;-91
2021/12/01 09:06:55;;;;;;;2.43;1.27;;;;;;;;;;6260018;22;20170;-89
2021/12/01 09:10:02;;;;;;;2.20;1.07;;;;;;;;;;6260409;23;20213;-90
2021/12/01 09:13:08;;;;;;;0.70;0.70;;;;;;;;;;6260830;22;20194;-89
2021/12/01 09:16:14;;;;;;;2.23;1.17;;;;;;;;;;6262179;23;20170;-86
2021/12/01 09:19:20;;;;;;;0.70;0.70;;;;;;;;;;6265594;22;20178;-90
2021/12/01 09:22:27;;;;;;;0.60;0.60;;;;;;;;;;6267246;23;20669;-88
2021/12/01 09:25:34;;;;;;;0.37;0.37;;;;;;;;;;6246868;23;20187;-87
2021/12/01 09:28:39;;;;;;;0.30;0.30;;;;;;;;;;6263235;23;20178;-88
2021/12/01 09:31:49;;;;;;;1.13;1.03;;;;;;;;;;6264011;23;20219;-89
2021/12/01 09:34:56;;;;;;;1.23;1.00;;;;;;;;;;6248954;23;20181;-91
2021/12/01 09:38:02;;;;;;;1.70;1.43;;;;;;;;;;6264813;22;20174;-90
2021/12/01 09:41:09;;;;;;;5.60;3.00;;;;;;;;;;6267095;23;20171;-89
2021/12/01 09:44:23;;;;;;;4.00;1.47;;;;;;;;;;6249781;23;20215;-89
2021/12/01 09:47:30;;;;;;;1.13;1.07;;;;;;;;;;6265146;23;20179;-86
2021/12/01 09:50:35;;;;;;;0.43;0.43;;;;;;;;;;6247751;22;20178;-91
2021/12/01 09:57:03;;;;;;;0.83;0.83;;;;;;;;;;6248999;23;20167;-89
2021/12/01 10:00:09;;;;;;;1.00;1.00;;;;;;;;;;6265483;23;20163;-89
2021/12/01 10:03:16;;;;;;;0.50;0.50;;;;;;;;;;6248110;23;20207;-89
2021/12/01 10:06:22;;;;;;;2.03;1.27;;;;;;;;;;6265470;22;20257;-90
2021/12/01 10:09:28;;;;;;;2.53;1.60;;;;;;;;;;6264446;23;20233;-89
2021/12/01 10:12:51;;;;;;;1.60;1.43;;;;;;;;;;6266472;23;20210;-88
2021/12/01 10:15:58;;;;;;;0.50;0.50;;;;;;;;;;6265205;23;20155;-88
2021/12/01 10:19:05;;;;;;;0.67;0.67;;;;;;;;;;6265308;22;20207;-88
2021/12/01 10:22:13;;;;;;;0.60;0.60;;;;;;;;;;6266217;22;20189;-88
2021/12/01 10:25:33;;;;;;;0.87;0.87;;;;;;;;;;6267017;22;20194;-88
2021/12/01 10:28:43;;;;;;;0.73;0.73;;;;;;;;;;6265470;22;20213;-90
2021/12/01 10:31:51;;;;;;;1.03;0.93;;;;;;;;;;6265115;23;20167;-89
2021/12/01 10:34:58;;;;;;;0.93;0.87;;;;;;;;;;6248090;23;20217;-90
2021/12/01 10:38:05;;;;;;;1.40;1.30;;;;;;;;;;6264022;23;20241;-88
2021/12/01 10:44:33;;;;;;;0.60;0.60;;;;;;;;;;6245620;23;20616;-89
2021/12/01 10:47:40;;;;;;;1.70;1.33;;;;;;;;;;6262859;23;20150;-89
2021/12/01 10:50:49;;;;;;;0.77;0.77;;;;;;;;;;6265671;23;20235;-89
2021/12/01 10:53:57;;;;;;;0.70;0.70;;;;;;;;;;6245827;23;20199;-91
2021/12/01 10:57:20;;;;;;;0.53;0.53;;;;;;;;;;6263841;23;20275;-89
2021/12/01 11:00:28;;;;;;;1.70;1.13;;;;;;;;;;6262038;22;20221;-90
2021/12/01 11:03:36;;;;;;;0.40;0.40;;;;;;;;;;6263576;22;20155;-92
2021/12/01 11:06:44;;;;;;;2.53;1.43;;;;;;;;;;6244775;22;20170;-89
2021/12/01 11:09:52;;;;;;;4.83;1.47;;;;;;;;;;6263392;22;20220;-91
2021/12/01 11:12:58;;;;;;;0.50;0.50;;;;;;;;;;6264145;22;20189;-92
2021/12/01 11:16:14;;;;;;;1.00;0.93;;;;;;;;;;6264913;22;20167;-89
2021/12/01 11:19:33;;;;;;;3.67;1.83;;;;;;;;;;6249826;22;20182;-90
2021/12/01 11:26:05;;;;;;;2.03;1.70;;;;;;;;;;6249810;23;20163;-90
2021/12/01 11:29:14;;;;;;;0.93;0.93;;;;;;;;;;6267392;23;20179;-90
2021/12/01 11:32:25;;;;;;;4.60;1.57;;;;;;;;;;6266380;23;20190;-89
2021/12/01 11:35:32;;;;;;;2.00;1.53;;;;;;;;;;6266463;22;20186;-91
2021/12/01 11:42:00;;;;;;;0.93;0.93;;;;;;;;;;6248865;23;20162;-90
2021/12/01 11:45:08;;;;;;;0.83;0.83;;;;;;;;;;6246793;23;20580;-89
2021/12/01 11:48:21;;;;;;;1.23;1.13;;;;;;;;;;6248362;23;20776;-89
2021/12/01 11:51:27;;;;;;;1.33;0.90;;;;;;;;;;6249320;22;20161;-89
2021/12/01 11:54:34;;;;;;;0.70;0.70;;;;;;;;;;6266816;22;20242;-90
2021/12/01 11:57:40;;;;;;;0.30;0.30;;;;;;;;;;6265458;23;20162;-90
2021/12/01 12:00:51;;;;;;;0.33;0.33;;;;;;;;;;6265046;22;20213;-92
2021/12/01 12:04:15;;;;;;;0.70;0.70;;;;;;;;;;6266526;23;20159;-89
2021/12/01 12:07:43;;;;;;;0.57;0.57;;;;;;;;;;6247417;23;20167;-89
2021/12/01 12:10:49;;;;;;;0.33;0.33;;;;;;;;;;6265083;23;20174;-88
2021/12/01 12:14:02;;;;;;;0.67;0.63;;;;;;;;;;6263961;23;20218;-87
2021/12/01 12:17:10;;;;;;;0.53;0.53;;;;;;;;;;6245386;23;20174;-89
2021/12/01 12:20:24;;;;;;;0.63;0.63;;;;;;;;;;6262563;22;20174;-88
2021/12/01 12:23:40;;;;;;;36.80;1.33;;;;;;;;;;6247431;23;20186;-88
2021/12/01 12:26:51;;;;;;;1.00;0.90;;;;;;;;;;6244847;23;20162;-88
2021/12/01 12:29:59;;;;;;;1.33;1.23;;;;;;;;;;6263714;23;20174;-88
2021/12/01 12:33:17;;;;;;;0.83;0.70;;;;;;;;;;6264038;22;20170;-88
2021/12/01 12:36:37;;;;;;;0.57;0.57;;;;;;;;;;6262386;23;20334;-90
2021/12/01 12:39:47;;;;;;;0.60;0.60;;;;;;;;;;6264192;22;20189;-89
2021/12/01 12:43:07;;;;;;;1.47;0.83;;;;;;;;;;6263471;23;20244;-89
2021/12/01 12:46:16;;;;;;;1.00;0.93;;;;;;;;;;6262629;23;20162;-89
2021/12/01 12:49:36;;;;;;;0.50;0.50;;;;;;;;;;6260766;22;20163;-88
2021/12/01 12:52:43;;;;;;;0.37;0.37;;;;;;;;;;6259446;23;20175;-88
2021/12/01 12:55:57;;;;;;;1.20;0.83;;;;;;;;;;6264136;22;20175;-89
2021/12/01 12:59:19;;;;;;;0.63;0.63;;;;;;;;;;6261663;23;20221;-90
2021/12/01 13:02:33;;;;;;;2.00;1.43;;;;;;;;;;6261026;23;20214;-89
2021/12/01 13:05:41;;;;;;;0.40;0.40;;;;;;;;;;6260413;23;20693;-91
2021/12/01 13:08:47;;;;;;;0.70;0.60;;;;;;;;;;6242477;23;20498;-90
2021/12/01 13:12:02;;;;;;;0.60;0.60;;;;;;;;;;6243109;23;20456;-90
2021/12/01 13:15:11;;;;;;;0.97;0.90;;;;;;;;;;6244547;23;20198;-90
2021/12/01 13:18:19;;;;;;;2.40;1.30;;;;;;;;;;6265335;23;20194;-89
2021/12/01 13:24:46;;;;;;;1.27;1.07;;;;;;;;;;6248794;23;20170;-91
2021/12/01 13:28:20;;;;;;;2.00;1.10;;;;;;;;;;6265535;22;20211;-90
2021/12/01 13:31:46;;;;;;;1.17;0.87;;;;;;;;;;6248327;23;20622;-89
2021/12/01 13:38:16;;;;;;;8.50;1.03;;;;;;;;;;6248858;22;20174;-88
2021/12/01 13:41:26;;;;;;;0.57;0.57;;;;;;;;;;6265761;22;20175;-88
2021/12/01 13:48:05;;;;;;;1.70;0.90;;;;;;;;;;6249958;22;20169;-88
2021/12/01 13:51:16;;;;;;;2.10;1.03;;;;;;;;;;6265852;22;20294;-90
2021/12/01 13:54:31;;;;;;;1.50;1.07;;;;;;;;;;6266986;23;20233;-86
2021/12/01 14:00:59;;;;;;;1.63;1.00;;;;;;;;;;6250748;23;20178;-88
2021/12/01 14:04:08;;;;;;;0.37;0.37;;;;;;;;;;6251636;23;20231;-89
2021/12/01 14:07:16;;;;;;;1.13;1.07;;;;;;;;;;6270508;22;20194;-89
2021/12/01 14:10:35;;;;;;;1.10;1.00;;;;;;;;;;6252288;23;20174;-89
2021/12/01 23:38:44;;;;;;;1.57;1.20;;;;;;;;;;6238322;22;20214;-88
2021/12/01 23:41:50;;;;;;;1.77;1.10;;;;;;;;;;6260526;22;20174;-85
2021/12/01 23:45:01;;;;;;;1.47;1.07;;;;;;;;;;6260357;23;20219;-88
2021/12/01 23:48:31;;;;;;;1.80;1.10;;;;;;;;;;6241981;23;20174;-89
2021/12/01 23:51:35;;;;;;;2.57;0.83;;;;;;;;;;6257923;23;20177;-89
2021/12/01 23:54:42;;;;;;;1.77;1.20;;;;;;;;;;6241523;23;20214;-90
2021/12/01 23:57:47;;;;;;;1.63;1.00;;;;;;;;;;6259394;23;20170;-88
